createdAt,value
2018-07-02T00:00:03.612Z,1015.76
2018-07-02T00:05:05.692Z,1015.75
2018-07-02T00:10:03.448Z,1015.76
2018-07-02T00:15:03.101Z,1015.75
2018-07-02T00:20:02.819Z,1015.66
2018-07-02T00:25:03.438Z,1015.61
2018-07-02T00:30:05.184Z,1015.67
2018-07-02T00:35:03.655Z,1015.64
2018-07-02T00:40:03.266Z,1015.63
2018-07-02T00:45:05.111Z,1015.66
2018-07-02T00:50:02.775Z,1015.56
2018-07-02T00:55:03.407Z,1015.56
2018-07-02T01:00:02.975Z,1015.5
2018-07-02T01:05:03.639Z,1015.48
2018-07-02T01:10:03.304Z,1015.39
2018-07-02T01:15:02.911Z,1015.42
2018-07-02T01:20:03.531Z,1015.37
2018-07-02T01:25:03.555Z,1015.4
2018-07-02T01:30:03.209Z,1015.34
2018-07-02T01:35:03.015Z,1015.4
2018-07-02T01:40:03.733Z,1015.41
2018-07-02T01:45:03.359Z,1015.49
2018-07-02T01:50:03.044Z,1015.47
2018-07-02T01:55:02.687Z,1015.46
2018-07-02T02:00:03.298Z,1015.58
2018-07-02T02:05:05.188Z,1015.68
2018-07-02T02:10:02.827Z,1015.66
2018-07-02T02:15:03.504Z,1015.72
2018-07-02T02:20:03.041Z,1015.69
2018-07-02T02:25:03.591Z,1015.67
2018-07-02T02:30:05.097Z,1015.68
2018-07-02T02:35:02.723Z,1015.72
2018-07-02T02:40:03.419Z,1015.8
2018-07-02T02:45:03.080Z,1015.7
2018-07-02T02:50:03.714Z,1015.63
2018-07-02T02:55:03.302Z,1015.62
2018-07-02T03:00:03.190Z,1015.59
2018-07-02T03:05:02.726Z,1015.62
2018-07-02T03:10:03.344Z,1015.61
2018-07-02T03:15:02.968Z,1015.61
2018-07-02T03:20:04.896Z,1015.63
2018-07-02T03:25:03.475Z,1015.61
2018-07-02T03:30:03.057Z,1015.66
2018-07-02T03:35:03.624Z,1015.74
2018-07-02T03:40:05.547Z,1015.69
2018-07-02T03:45:03.047Z,1015.78
2018-07-02T03:50:03.487Z,1015.95
2018-07-02T03:55:03.007Z,1015.92
2018-07-02T04:00:05.385Z,1015.97
2018-07-02T04:05:02.806Z,1016.08
2018-07-02T04:10:03.483Z,1016.1
2018-07-02T04:15:05.246Z,1016.07
2018-07-02T04:20:02.783Z,1016.12
2018-07-02T04:25:05.419Z,1016.16
2018-07-02T04:30:03.578Z,1016.2
2018-07-02T04:35:03.124Z,1016.06
2018-07-02T04:40:04.950Z,1016.1
2018-07-02T04:45:04.142Z,1016.07
2018-07-02T04:50:05.550Z,1016.23
2018-07-02T04:55:05.050Z,1016.29
2018-07-02T05:00:03.413Z,1016.26
2018-07-02T05:05:02.868Z,1016.27
2018-07-02T05:10:03.470Z,1016.25
2018-07-02T05:15:02.916Z,1016.29
2018-07-02T05:20:03.287Z,1016.22
2018-07-02T05:25:02.782Z,1016.1
2018-07-02T05:30:03.208Z,1016.1
2018-07-02T05:35:02.607Z,1016.03
2018-07-02T05:40:02.983Z,1015.97
2018-07-02T05:45:03.590Z,1015.98
2018-07-02T05:50:02.965Z,1015.96
2018-07-02T05:55:03.470Z,1015.96
2018-07-02T06:00:03.331Z,1015.93
2018-07-02T06:05:02.876Z,1015.88
2018-07-02T06:10:03.391Z,1015.91
2018-07-02T06:15:02.837Z,1015.97
2018-07-02T06:20:03.199Z,1015.9
2018-07-02T06:25:03.581Z,1016
2018-07-02T06:30:02.984Z,1016.02
2018-07-02T06:35:03.370Z,1015.99
2018-07-02T06:40:02.908Z,1016.03
2018-07-02T06:45:03.280Z,1016.09
2018-07-02T06:50:02.657Z,1016.03
2018-07-02T06:55:03.134Z,1016.05
2018-07-02T07:00:02.618Z,1016.1
2018-07-02T07:05:02.993Z,1015.97
2018-07-02T07:10:03.410Z,1016.06
2018-07-02T07:15:02.759Z,1015.95
2018-07-02T07:20:03.182Z,1016.04
2018-07-02T07:25:02.622Z,1016.05
2018-07-02T07:30:03.141Z,1016.07
2018-07-02T07:35:02.592Z,1016.1
2018-07-02T07:40:03.113Z,1016.12
2018-07-02T07:45:03.513Z,1016.15
2018-07-02T07:50:03.158Z,1016.17
2018-07-02T07:55:03.378Z,1016.24
2018-07-02T08:00:02.869Z,1016.2
2018-07-02T08:05:03.534Z,1016.14
2018-07-02T08:10:03.068Z,1016.21
2018-07-02T08:15:03.547Z,1016.2
2018-07-02T08:20:03.160Z,1016.22
2018-07-02T08:25:02.672Z,1016.16
2018-07-02T08:30:03.125Z,1016.26
2018-07-02T08:35:03.595Z,1016.08
2018-07-02T08:40:03.053Z,1016.08
2018-07-02T08:45:03.476Z,1016.03
2018-07-02T08:50:02.954Z,1016.04
2018-07-02T08:55:03.327Z,1016.05
2018-07-02T09:00:02.769Z,1016.04
2018-07-02T09:05:03.275Z,1016.02
2018-07-02T09:10:02.741Z,1016.13
2018-07-02T09:15:03.138Z,1016.02
2018-07-02T09:20:02.637Z,1016
2018-07-02T09:25:03.104Z,1016.01
2018-07-02T09:30:03.692Z,1016.07
2018-07-02T09:35:03.344Z,1016.03
2018-07-02T09:40:02.913Z,1016.08
2018-07-02T09:45:03.377Z,1016.04
2018-07-02T09:50:02.857Z,1016.05
2018-07-02T09:55:03.349Z,1016.06
2018-07-02T10:00:02.760Z,1016.04
2018-07-02T10:05:03.335Z,1016.07
2018-07-02T10:10:03.030Z,1015.95
2018-07-02T10:15:03.539Z,1016.05
2018-07-02T10:20:03.033Z,1016.01
2018-07-02T10:25:03.467Z,1015.99
2018-07-02T10:30:02.968Z,1016.05
2018-07-02T10:35:03.412Z,1016.04
2018-07-02T10:40:03.429Z,1015.96
2018-07-02T10:45:02.992Z,1015.83
2018-07-02T10:50:03.448Z,1015.99
2018-07-02T10:55:02.843Z,1015.97
2018-07-02T11:00:03.240Z,1015.87
2018-07-02T11:05:02.761Z,1015.96
2018-07-02T11:10:03.323Z,1015.83
2018-07-02T11:15:02.742Z,1015.8
2018-07-02T11:20:03.282Z,1015.74
2018-07-02T11:25:02.685Z,1015.87
2018-07-02T11:30:03.183Z,1015.64
2018-07-02T11:35:02.726Z,1015.64
2018-07-02T11:40:03.244Z,1015.62
2018-07-02T11:45:02.694Z,1015.8
2018-07-02T11:50:03.216Z,1015.68
2018-07-02T11:55:02.764Z,1015.68
2018-07-02T12:00:03.254Z,1015.61
2018-07-02T12:05:02.679Z,1015.68
2018-07-02T12:10:03.211Z,1015.76
2018-07-02T12:15:02.656Z,1015.7
2018-07-02T12:20:03.164Z,1015.73
2018-07-02T12:25:02.695Z,1015.64
2018-07-02T12:30:03.216Z,1015.67
2018-07-02T12:35:02.777Z,1015.67
2018-07-02T12:40:03.371Z,1015.68
2018-07-02T12:45:02.685Z,1015.66
2018-07-02T12:50:03.234Z,1015.64
2018-07-02T12:55:02.596Z,1015.58
2018-07-02T13:00:03.123Z,1015.58
2018-07-02T13:05:02.716Z,1015.48
2018-07-02T13:10:03.224Z,1015.5
2018-07-02T13:15:02.592Z,1015.48
2018-07-02T13:20:03.079Z,1015.38
2018-07-02T13:25:03.476Z,1015.41
2018-07-02T13:30:03.406Z,1015.43
2018-07-02T13:35:03.296Z,1015.33
2018-07-02T13:40:02.865Z,1015.32
2018-07-02T13:45:03.565Z,1015.27
2018-07-02T13:50:02.987Z,1015.25
2018-07-02T13:55:03.516Z,1015.24
2018-07-02T14:00:02.946Z,1015.16
2018-07-02T14:05:03.314Z,1015.18
2018-07-02T14:10:03.273Z,1015.13
2018-07-02T14:15:02.684Z,1015.11
2018-07-02T14:20:03.602Z,1015.11
2018-07-02T14:25:03.092Z,1015.15
2018-07-02T14:30:03.439Z,1015.13
2018-07-02T14:35:02.983Z,1015.01
2018-07-02T14:40:03.401Z,1015.09
2018-07-02T14:45:04.493Z,1015.09
2018-07-02T14:50:03.477Z,1015.02
2018-07-02T14:55:02.871Z,1015.05
2018-07-02T15:00:03.628Z,1014.99
2018-07-02T15:05:03.212Z,1014.95
2018-07-02T15:10:02.652Z,1014.92
2018-07-02T15:15:03.156Z,1014.95
2018-07-02T15:20:02.666Z,1014.97
2018-07-02T15:25:03.113Z,1014.99
2018-07-02T15:30:03.585Z,1014.92
2018-07-02T15:35:03.114Z,1014.91
2018-07-02T15:40:02.606Z,1015.02
2018-07-02T15:45:03.009Z,1014.89
2018-07-02T15:50:03.510Z,1014.91
2018-07-02T15:55:02.993Z,1014.94
2018-07-02T16:00:03.374Z,1014.96
2018-07-02T16:05:02.798Z,1014.93
2018-07-02T16:10:03.261Z,1014.92
2018-07-02T16:15:02.715Z,1014.86
2018-07-02T16:20:03.224Z,1014.88
2018-07-02T16:25:02.667Z,1014.95
2018-07-02T16:30:03.117Z,1014.93
2018-07-02T16:35:03.840Z,1015
2018-07-02T16:40:03.369Z,1014.96
2018-07-02T16:45:02.798Z,1014.96
2018-07-02T16:50:03.266Z,1014.88
2018-07-02T16:55:02.712Z,1014.76
2018-07-02T17:00:03.176Z,1014.84
2018-07-02T17:05:02.668Z,1014.91
2018-07-02T17:10:03.161Z,1014.96
2018-07-02T17:15:02.630Z,1014.93
2018-07-02T17:20:03.101Z,1014.91
2018-07-02T17:25:03.522Z,1014.88
2018-07-02T17:30:02.938Z,1014.84
2018-07-02T17:35:03.380Z,1014.9
2018-07-02T17:40:02.877Z,1015
2018-07-02T17:45:03.349Z,1014.96
2018-07-02T17:50:02.792Z,1014.89
2018-07-02T17:55:03.403Z,1014.89
2018-07-02T18:00:02.796Z,1014.98
2018-07-02T18:05:03.206Z,1014.91
2018-07-02T18:10:02.714Z,1014.87
2018-07-02T18:15:03.196Z,1015.08
2018-07-02T18:20:03.000Z,1015.08
2018-07-02T18:25:03.456Z,1015.13
2018-07-02T18:30:02.914Z,1015.12
2018-07-02T18:35:03.412Z,1015.17
2018-07-02T18:40:02.905Z,1015.23
2018-07-02T18:45:03.285Z,1015.29
2018-07-02T18:50:02.783Z,1015.33
2018-07-02T18:55:03.227Z,1015.27
2018-07-02T19:00:02.725Z,1015.43
2018-07-02T19:05:03.163Z,1015.52
2018-07-02T19:10:02.694Z,1015.48
2018-07-02T19:15:03.135Z,1015.43
2018-07-02T19:20:03.576Z,1015.51
2018-07-02T19:25:02.994Z,1015.58
2018-07-02T19:30:03.526Z,1015.54
2018-07-02T19:35:03.012Z,1015.6
2018-07-02T19:40:03.511Z,1015.68
2018-07-02T19:45:03.000Z,1015.7
2018-07-02T19:50:03.477Z,1015.62
2018-07-02T19:55:03.135Z,1015.71
2018-07-02T20:00:02.785Z,1015.75
2018-07-02T20:05:03.348Z,1015.8
2018-07-02T20:10:02.865Z,1015.87
2018-07-02T20:15:03.293Z,1015.9
2018-07-02T20:20:02.803Z,1016.01
2018-07-02T20:25:03.434Z,1016.07
2018-07-02T20:30:02.834Z,1016.1
2018-07-02T20:35:03.265Z,1016.14
2018-07-02T20:40:02.749Z,1016.17
2018-07-02T20:45:03.227Z,1016.24
2018-07-02T20:50:02.703Z,1016.3
2018-07-02T20:55:03.166Z,1016.32
2018-07-02T21:00:02.627Z,1016.32
2018-07-02T21:05:03.335Z,1016.35
2018-07-02T21:10:03.311Z,1016.41
2018-07-02T21:15:02.839Z,1016.42
2018-07-02T21:20:03.322Z,1016.49
2018-07-02T21:25:02.745Z,1016.45
2018-07-02T21:30:03.301Z,1016.44
2018-07-02T21:35:02.721Z,1016.47
2018-07-02T21:40:03.221Z,1016.46
2018-07-02T21:45:02.643Z,1016.44
2018-07-02T21:50:03.123Z,1016.41
2018-07-02T21:55:03.562Z,1016.39
2018-07-02T22:00:03.018Z,1016.43
2018-07-02T22:05:03.523Z,1016.47
2018-07-02T22:10:03.039Z,1016.47
2018-07-02T22:15:03.551Z,1016.5
2018-07-02T22:20:03.022Z,1016.55
2018-07-02T22:25:03.476Z,1016.59
2018-07-02T22:30:02.838Z,1016.71
2018-07-02T22:35:03.291Z,1016.7
2018-07-02T22:40:02.762Z,1016.78
2018-07-02T22:45:03.204Z,1016.8
2018-07-02T22:50:02.652Z,1016.84
2018-07-02T22:55:03.064Z,1016.82
2018-07-02T23:00:03.428Z,1016.85
2018-07-02T23:05:02.629Z,1016.89
2018-07-02T23:10:03.279Z,1016.99
2018-07-02T23:15:02.650Z,1017.03
2018-07-02T23:20:03.148Z,1016.99
2018-07-02T23:25:02.644Z,1017.06
2018-07-02T23:30:03.068Z,1016.99
2018-07-02T23:35:03.509Z,1017.09
2018-07-02T23:40:02.914Z,1017.07
2018-07-02T23:45:03.360Z,1017.03
2018-07-02T23:50:02.760Z,1017.11
2018-07-02T23:55:03.124Z,1017.13
